createdAt,value
2023-05-05T00:01:20.224Z,21.20
2023-05-05T00:06:23.057Z,20.40
2023-05-05T00:11:27.453Z,18.00
2023-05-05T00:16:30.223Z,18.60
2023-05-05T00:21:33.077Z,20.00
2023-05-05T00:26:37.190Z,17.00
2023-05-05T00:31:40.184Z,20.20
2023-05-05T00:36:42.983Z,18.60
2023-05-05T00:41:47.233Z,20.00
2023-05-05T00:46:50.129Z,20.60
2023-05-05T00:51:53.032Z,15.40
2023-05-05T00:56:57.219Z,16.60
2023-05-05T01:02:00.150Z,19.00
2023-05-05T01:07:08.699Z,16.80
2023-05-05T01:12:17.121Z,16.60
2023-05-05T01:17:21.192Z,16.00
2023-05-05T01:22:25.831Z,17.00
2023-05-05T01:27:38.306Z,16.40
2023-05-05T01:32:44.606Z,19.40
2023-05-05T01:37:48.752Z,18.00
2023-05-05T01:42:51.536Z,17.00
2023-05-05T01:47:55.845Z,18.00
2023-05-05T01:52:59.037Z,16.00
2023-05-05T01:58:01.797Z,19.00
2023-05-05T02:03:06.488Z,17.40
2023-05-05T02:08:09.820Z,15.00
2023-05-05T02:13:13.467Z,17.20
2023-05-05T02:18:17.764Z,16.40
2023-05-05T02:23:20.631Z,16.00
2023-05-05T02:28:24.250Z,15.20
2023-05-05T02:33:28.634Z,16.60
2023-05-05T02:38:31.867Z,15.40
2023-05-05T02:43:37.780Z,15.20
2023-05-05T02:48:42.328Z,15.80
2023-05-05T02:53:45.127Z,15.00
2023-05-05T02:58:50.079Z,13.00
2023-05-05T03:03:58.167Z,13.60
2023-05-05T03:09:07.276Z,12.40
2023-05-05T03:14:12.880Z,15.20
2023-05-05T03:19:18.985Z,15.20
2023-05-05T03:24:24.213Z,15.00
2023-05-05T03:29:37.356Z,15.80
2023-05-05T03:34:45.281Z,12.00
2023-05-05T03:39:48.775Z,13.20
2023-05-05T03:44:53.430Z,13.80
2023-05-05T03:50:00.635Z,13.20
2023-05-05T03:55:03.624Z,14.60
2023-05-05T04:00:11.758Z,13.60
2023-05-05T04:05:19.767Z,12.20
2023-05-05T04:10:22.939Z,11.60
2023-05-05T04:15:25.792Z,11.80
2023-05-05T04:20:30.256Z,14.40
2023-05-05T04:25:33.273Z,12.20
2023-05-05T04:30:36.503Z,12.00
2023-05-05T04:35:40.711Z,14.00
2023-05-05T04:40:43.718Z,11.40
2023-05-05T04:45:53.647Z,12.00
2023-05-05T04:50:59.714Z,13.20
2023-05-05T04:56:02.789Z,11.80
2023-05-05T05:01:06.079Z,12.00
2023-05-05T05:06:10.282Z,11.60
2023-05-05T05:11:13.190Z,11.00
2023-05-05T05:16:16.159Z,11.00
2023-05-05T05:21:20.995Z,9.20
2023-05-05T05:26:24.017Z,10.00
2023-05-05T05:31:27.090Z,11.40
2023-05-05T05:36:32.569Z,10.80
2023-05-05T05:41:35.613Z,8.00
2023-05-05T05:46:38.980Z,11.00
2023-05-05T05:51:43.707Z,8.80
2023-05-05T05:56:46.738Z,11.20
2023-05-05T06:01:49.676Z,11.40
2023-05-05T06:06:53.918Z,9.00
2023-05-05T06:11:56.994Z,11.00
2023-05-05T06:16:59.884Z,9.00
2023-05-05T06:22:06.343Z,8.40
2023-05-05T06:27:10.234Z,11.00
2023-05-05T06:32:14.181Z,11.00
2023-05-05T06:37:18.470Z,9.00
2023-05-05T06:42:21.548Z,8.80
2023-05-05T06:47:24.401Z,8.20
2023-05-05T06:52:28.747Z,9.00
2023-05-05T06:57:31.669Z,13.20
2023-05-05T07:02:34.638Z,15.00
2023-05-05T07:07:38.944Z,15.20
2023-05-05T07:12:41.995Z,15.40
2023-05-05T07:17:45.136Z,17.20
2023-05-05T07:22:49.494Z,14.60
2023-05-05T07:27:52.393Z,12.40
2023-05-05T07:32:56.710Z,13.00
2023-05-05T07:38:01.086Z,11.80
2023-05-05T07:43:04.776Z,14.80
2023-05-05T07:48:07.681Z,15.20
2023-05-05T07:53:14.983Z,13.00
2023-05-05T07:58:18.137Z,10.80
2023-05-05T08:03:24.520Z,9.00
2023-05-05T08:08:29.165Z,11.00
2023-05-05T08:13:32.220Z,11.80
2023-05-05T08:18:37.503Z,11.80
2023-05-05T08:23:42.031Z,11.00
2023-05-05T08:28:44.924Z,11.40
2023-05-05T08:33:47.789Z,11.40
2023-05-05T08:38:52.005Z,10.00
2023-05-05T08:43:54.838Z,9.00
2023-05-05T08:48:57.655Z,9.00
2023-05-05T08:54:03.436Z,11.20
2023-05-05T08:59:06.263Z,10.60
2023-05-05T09:04:09.357Z,10.00
2023-05-05T09:09:13.495Z,10.60
2023-05-05T09:14:16.446Z,8.00
2023-05-05T09:19:19.331Z,8.00
2023-05-05T09:24:23.541Z,9.20
2023-05-05T09:29:26.425Z,9.00
2023-05-05T09:34:29.209Z,8.40
2023-05-05T09:39:33.436Z,9.40
2023-05-05T09:44:36.624Z,9.20
2023-05-05T09:49:39.433Z,9.80
2023-05-05T09:54:43.669Z,9.80
2023-05-05T09:59:56.578Z,9.00
2023-05-05T10:05:06.289Z,9.00
2023-05-05T10:10:11.912Z,10.20
2023-05-05T10:15:15.473Z,12.00
2023-05-05T10:20:18.275Z,11.00
2023-05-05T10:25:26.668Z,11.60
2023-05-05T10:30:31.268Z,12.00
2023-05-05T10:35:34.609Z,9.60
2023-05-05T10:40:38.846Z,10.00
2023-05-05T10:45:41.720Z,15.80
2023-05-05T10:50:49.064Z,13.00
2023-05-05T10:55:56.256Z,12.00
2023-05-05T11:00:59.279Z,13.00
2023-05-05T11:06:15.776Z,12.40
2023-05-05T11:11:20.225Z,13.00
2023-05-05T11:16:44.253Z,13.80
2023-05-05T11:22:01.004Z,15.40
2023-05-05T11:27:05.427Z,15.20
2023-05-05T11:32:15.699Z,15.60
2023-05-05T11:37:18.671Z,12.20
2023-05-05T11:42:26.773Z,14.60
2023-05-05T11:47:32.777Z,15.80
2023-05-05T11:52:35.691Z,15.80
2023-05-05T11:57:40.097Z,13.00
2023-05-05T12:02:43.116Z,15.80
2023-05-05T12:07:46.065Z,14.40
2023-05-05T12:12:50.303Z,14.60
2023-05-05T12:17:53.181Z,14.00
2023-05-05T12:23:00.989Z,13.60
2023-05-05T12:28:06.097Z,13.80
2023-05-05T12:33:09.304Z,15.00
2023-05-05T12:38:12.312Z,13.40
2023-05-05T12:43:30.044Z,10.00
2023-05-05T12:48:32.962Z,13.80
2023-05-05T12:53:35.835Z,12.20
2023-05-05T12:58:49.734Z,13.00
2023-05-05T13:04:06.256Z,58.67
2023-05-05T13:09:10.192Z,71.25
2023-05-05T13:14:14.589Z,160.00
2023-05-05T13:19:17.447Z,187.33
2023-05-05T13:24:28.687Z,266.00
2023-05-05T13:29:40.106Z,313.75
2023-05-05T13:34:44.157Z,301.75
2023-05-05T13:39:47.208Z,275.50
2023-05-05T13:44:51.633Z,244.25
2023-05-05T13:49:54.649Z,241.25
2023-05-05T13:54:57.910Z,226.25
2023-05-05T14:00:04.772Z,210.00
2023-05-05T14:05:11.133Z,198.00
2023-05-05T14:10:14.220Z,190.33
2023-05-05T14:15:18.932Z,175.67
2023-05-05T14:20:22.041Z,176.33
2023-05-05T14:25:25.339Z,172.33
2023-05-05T14:30:29.687Z,169.00
2023-05-05T14:35:32.638Z,162.25
2023-05-05T14:40:35.480Z,150.00
2023-05-05T14:45:39.892Z,143.50
2023-05-05T14:50:42.851Z,135.25
2023-05-05T14:55:45.861Z,135.25
2023-05-05T15:00:50.108Z,144.00
2023-05-05T15:05:53.143Z,130.25
2023-05-05T15:10:55.910Z,132.50
2023-05-05T15:16:00.071Z,129.50
2023-05-05T15:21:03.064Z,124.50
2023-05-05T15:26:05.889Z,116.75
2023-05-05T15:31:10.283Z,123.00
2023-05-05T15:36:13.707Z,117.25
2023-05-05T15:41:16.583Z,110.50
2023-05-05T15:46:20.814Z,111.00
2023-05-05T15:51:23.688Z,106.75
2023-05-05T15:56:27.339Z,102.00
2023-05-05T16:01:33.379Z,102.75
2023-05-05T16:06:36.483Z,95.25
2023-05-05T16:11:39.301Z,86.00
2023-05-05T16:16:43.884Z,86.75
2023-05-05T16:21:46.682Z,90.25
2023-05-05T16:26:49.714Z,84.25
2023-05-05T16:31:53.977Z,84.75
2023-05-05T16:36:56.747Z,81.00
2023-05-05T16:41:59.584Z,78.75
2023-05-05T16:47:04.138Z,78.75
2023-05-05T16:52:07.054Z,74.75
2023-05-05T16:57:09.962Z,76.75
2023-05-05T17:02:14.288Z,76.00
2023-05-05T17:07:17.082Z,75.00
2023-05-05T17:12:19.873Z,71.75
2023-05-05T17:17:24.269Z,69.00
2023-05-05T17:22:27.069Z,65.25
2023-05-05T17:27:29.980Z,65.75
2023-05-05T17:32:34.108Z,63.00
2023-05-05T17:37:37.174Z,63.75
2023-05-05T17:42:40.530Z,64.25
2023-05-05T17:47:44.811Z,62.25
2023-05-05T17:52:47.683Z,61.75
2023-05-05T17:57:50.714Z,62.25
2023-05-05T18:02:55.763Z,60.25
2023-05-05T18:07:58.571Z,60.25
2023-05-05T18:13:01.368Z,58.75
2023-05-05T18:18:06.071Z,60.00
2023-05-05T18:23:08.939Z,59.50
2023-05-05T18:28:12.290Z,58.00
2023-05-05T18:33:16.546Z,56.00
2023-05-05T18:38:19.718Z,57.00
2023-05-05T18:43:22.521Z,55.00
2023-05-05T18:48:27.845Z,54.00
2023-05-05T18:53:30.944Z,55.00
2023-05-05T18:58:33.899Z,57.00
2023-05-05T19:03:38.523Z,51.00
2023-05-05T19:08:41.422Z,52.33
2023-05-05T19:13:44.238Z,51.67
2023-05-05T19:18:48.413Z,49.67
2023-05-05T19:23:51.196Z,47.00
2023-05-05T19:28:54.186Z,51.00
2023-05-05T19:34:00.802Z,51.67
2023-05-05T19:39:04.181Z,48.33
2023-05-05T19:44:06.953Z,49.67
2023-05-05T19:49:11.178Z,47.00
2023-05-05T19:54:14.246Z,47.00
2023-05-05T19:59:17.577Z,46.33
2023-05-05T20:04:21.711Z,45.67
2023-05-05T20:09:24.490Z,46.33
2023-05-05T20:14:27.266Z,45.75
2023-05-05T20:19:31.540Z,45.50
2023-05-05T20:24:34.879Z,46.25
2023-05-05T20:29:37.839Z,47.00
2023-05-05T20:34:42.151Z,45.25
2023-05-05T20:39:44.907Z,43.50
2023-05-05T20:44:47.816Z,45.50
2023-05-05T20:49:52.133Z,44.25
2023-05-05T20:54:54.989Z,43.25
2023-05-05T20:59:57.974Z,41.25
2023-05-05T21:05:03.210Z,41.75
2023-05-05T21:10:07.272Z,42.75
2023-05-05T21:15:11.571Z,40.75
2023-05-05T21:20:16.361Z,42.50
2023-05-05T21:25:19.806Z,42.00
2023-05-05T21:30:23.878Z,41.50
2023-05-05T21:35:28.071Z,42.50
2023-05-05T21:40:30.951Z,40.25
2023-05-05T21:45:33.948Z,41.50
2023-05-05T21:50:38.114Z,41.75
2023-05-05T21:55:40.893Z,41.25
2023-05-05T22:00:44.912Z,40.25
2023-05-05T22:05:49.191Z,41.00
2023-05-05T22:10:52.113Z,40.25
2023-05-05T22:15:54.950Z,38.75
2023-05-05T22:20:59.068Z,39.00
2023-05-05T22:26:01.910Z,39.25
2023-05-05T22:31:04.848Z,41.75
2023-05-05T22:36:10.056Z,41.75
2023-05-05T22:41:13.406Z,40.00
2023-05-05T22:46:16.223Z,39.50
2023-05-05T22:51:20.334Z,38.50
2023-05-05T22:56:23.088Z,36.00
2023-05-05T23:01:25.989Z,37.75
2023-05-05T23:06:30.257Z,34.00
2023-05-05T23:11:33.161Z,35.00
2023-05-05T23:16:36.008Z,36.75
2023-05-05T23:21:52.199Z,35.00
2023-05-05T23:26:56.582Z,37.00
2023-05-05T23:31:59.488Z,33.00
2023-05-05T23:37:05.917Z,35.60
2023-05-05T23:42:09.024Z,36.50
2023-05-05T23:47:11.845Z,33.50
2023-05-05T23:52:16.069Z,34.80
2023-05-05T23:57:18.883Z,35.00
